sensor_id;sensor_type;location;lat;lon;timestamp;pressure;altitude;pressure_sealevel;temperature;humidity
70684;BME280;58263;48.146;11.440;2022-08-07T00:00:47;96251.06;;;19.22;70.70
70684;BME280;58263;48.146;11.440;2022-08-07T00:03:13;96255.69;;;19.21;70.59
70684;BME280;58263;48.146;11.440;2022-08-07T00:05:38;96252.41;;;19.19;70.40
70684;BME280;58263;48.146;11.440;2022-08-07T00:08:04;96256.78;;;19.20;69.80
70684;BME280;58263;48.146;11.440;2022-08-07T00:10:30;96254.06;;;19.20;69.68
70684;BME280;58263;48.146;11.440;2022-08-07T00:12:59;96256.50;;;19.32;69.17
70684;BME280;58263;48.146;11.440;2022-08-07T00:15:24;96262.75;;;19.33;69.16
70684;BME280;58263;48.146;11.440;2022-08-07T00:17:50;96259.50;;;19.25;68.17
70684;BME280;58263;48.146;11.440;2022-08-07T00:20:15;96262.22;;;19.25;68.52
70684;BME280;58263;48.146;11.440;2022-08-07T00:22:41;96264.09;;;19.25;67.75
70684;BME280;58263;48.146;11.440;2022-08-07T00:25:07;96264.13;;;19.20;68.07
70684;BME280;58263;48.146;11.440;2022-08-07T00:27:34;96262.22;;;19.20;67.97
70684;BME280;58263;48.146;11.440;2022-08-07T00:30:00;96263.31;;;19.14;67.95
70684;BME280;58263;48.146;11.440;2022-08-07T00:32:25;96260.03;;;19.12;67.81
70684;BME280;58263;48.146;11.440;2022-08-07T00:34:51;96258.97;;;19.13;68.19
70684;BME280;58263;48.146;11.440;2022-08-07T00:37:16;96254.31;;;19.14;67.49
70684;BME280;58263;48.146;11.440;2022-08-07T00:39:42;96254.06;;;19.15;67.92
70684;BME280;58263;48.146;11.440;2022-08-07T00:42:07;96243.72;;;19.07;67.41
70684;BME280;58263;48.146;11.440;2022-08-07T00:44:34;96249.16;;;19.02;67.20
70684;BME280;58263;48.146;11.440;2022-08-07T00:47:01;96246.44;;;19.07;66.65
70684;BME280;58263;48.146;11.440;2022-08-07T00:49:26;96243.19;;;19.05;66.03
70684;BME280;58263;48.146;11.440;2022-08-07T00:51:51;96248.06;;;19.03;66.37
70684;BME280;58263;48.146;11.440;2022-08-07T00:54:17;96246.72;;;19.00;66.38
70684;BME280;58263;48.146;11.440;2022-08-07T00:56:42;96242.09;;;18.96;65.26
70684;BME280;58263;48.146;11.440;2022-08-07T00:59:08;96246.19;;;18.93;65.38
70684;BME280;58263;48.146;11.440;2022-08-07T01:01:34;96241.00;;;18.91;65.15
70684;BME280;58263;48.146;11.440;2022-08-07T01:04:04;96245.88;;;18.89;65.76
70684;BME280;58263;48.146;11.440;2022-08-07T01:06:29;96234.22;;;18.89;64.63
70684;BME280;58263;48.146;11.440;2022-08-07T01:08:56;96241.28;;;18.90;64.68
70684;BME280;58263;48.146;11.440;2022-08-07T01:11:22;96240.47;;;19.00;64.05
70684;BME280;58263;48.146;11.440;2022-08-07T01:13:47;96236.09;;;18.94;63.99
70684;BME280;58263;48.146;11.440;2022-08-07T01:16:12;96231.19;;;18.85;63.37
70684;BME280;58263;48.146;11.440;2022-08-07T01:18:39;96231.19;;;18.80;63.39
70684;BME280;58263;48.146;11.440;2022-08-07T01:21:12;96217.06;;;18.78;63.61
70684;BME280;58263;48.146;11.440;2022-08-07T01:23:40;96224.13;;;18.79;63.74
70684;BME280;58263;48.146;11.440;2022-08-07T01:26:10;96220.31;;;18.80;63.89
70684;BME280;58263;48.146;11.440;2022-08-07T01:28:37;96215.69;;;18.75;63.18
70684;BME280;58263;48.146;11.440;2022-08-07T01:31:03;96213.25;;;18.69;63.26
70684;BME280;58263;48.146;11.440;2022-08-07T01:33:29;96217.31;;;18.71;62.98
70684;BME280;58263;48.146;11.440;2022-08-07T01:35:56;96215.41;;;18.77;62.63
70684;BME280;58263;48.146;11.440;2022-08-07T01:38:22;96225.75;;;18.75;62.96
70684;BME280;58263;48.146;11.440;2022-08-07T01:40:48;96224.38;;;18.62;63.80
70684;BME280;58263;48.146;11.440;2022-08-07T01:43:15;96217.31;;;18.61;64.16
70684;BME280;58263;48.146;11.440;2022-08-07T01:45:41;96222.75;;;18.61;64.55
70684;BME280;58263;48.146;11.440;2022-08-07T01:48:07;96223.03;;;18.54;65.00
70684;BME280;58263;48.146;11.440;2022-08-07T01:50:35;96222.47;;;18.52;64.88
70684;BME280;58263;48.146;11.440;2022-08-07T01:53:02;96214.31;;;18.52;64.78
70684;BME280;58263;48.146;11.440;2022-08-07T01:55:54;96212.13;;;18.49;65.17
70684;BME280;58263;48.146;11.440;2022-08-07T01:58:20;96205.88;;;18.44;65.52
70684;BME280;58263;48.146;11.440;2022-08-07T02:00:50;96199.63;;;18.38;66.37
70684;BME280;58263;48.146;11.440;2022-08-07T02:03:19;96196.91;;;18.33;66.83
70684;BME280;58263;48.146;11.440;2022-08-07T02:05:50;96206.09;;;18.27;67.38
70684;BME280;58263;48.146;11.440;2022-08-07T02:08:19;96208.81;;;18.21;67.88
70684;BME280;58263;48.146;11.440;2022-08-07T02:10:47;96205.25;;;18.16;68.43
70684;BME280;58263;48.146;11.440;2022-08-07T02:13:19;96203.91;;;18.08;68.41
70684;BME280;58263;48.146;11.440;2022-08-07T02:15:44;96206.03;;;18.01;68.63
70684;BME280;58263;48.146;11.440;2022-08-07T02:18:11;96203.59;;;17.99;68.76
70684;BME280;58263;48.146;11.440;2022-08-07T02:20:38;96203.31;;;18.01;68.74
70684;BME280;58263;48.146;11.440;2022-08-07T02:23:05;96201.41;;;17.96;68.97
70684;BME280;58263;48.146;11.440;2022-08-07T02:25:33;96202.53;;;18.00;68.59
70684;BME280;58263;48.146;11.440;2022-08-07T02:28:00;96192.47;;;17.96;68.35
70684;BME280;58263;48.146;11.440;2022-08-07T02:30:27;96184.84;;;17.93;68.41
70684;BME280;58263;48.146;11.440;2022-08-07T02:32:55;96183.22;;;17.92;67.75
70684;BME280;58263;48.146;11.440;2022-08-07T02:35:22;96174.50;;;17.89;67.88
70684;BME280;58263;48.146;11.440;2022-08-07T02:37:49;96182.91;;;17.88;67.90
70684;BME280;58263;48.146;11.440;2022-08-07T02:40:16;96182.59;;;17.84;67.80
70684;BME280;58263;48.146;11.440;2022-08-07T02:42:43;96182.91;;;17.88;67.58
70684;BME280;58263;48.146;11.440;2022-08-07T02:45:11;96184.25;;;17.85;67.76
70684;BME280;58263;48.146;11.440;2022-08-07T02:47:36;96182.09;;;17.87;67.40
70684;BME280;58263;48.146;11.440;2022-08-07T02:50:03;96182.09;;;17.87;67.88
70684;BME280;58263;48.146;11.440;2022-08-07T02:52:32;96183.72;;;17.83;67.67
70684;BME280;58263;48.146;11.440;2022-08-07T02:55:06;96185.31;;;17.74;68.41
70684;BME280;58263;48.146;11.440;2022-08-07T02:57:35;96183.09;;;17.66;69.01
70684;BME280;58263;48.146;11.440;2022-08-07T03:00:03;96184.97;;;17.65;69.29
70684;BME280;58263;48.146;11.440;2022-08-07T03:02:29;96184.72;;;17.62;70.12
70684;BME280;58263;48.146;11.440;2022-08-07T03:04:55;96184.16;;;17.60;70.18
70684;BME280;58263;48.146;11.440;2022-08-07T03:07:22;96181.97;;;17.56;70.63
70684;BME280;58263;48.146;11.440;2022-08-07T03:09:48;96181.41;;;17.54;70.81
70684;BME280;58263;48.146;11.440;2022-08-07T03:12:14;96182.16;;;17.45;71.46
70684;BME280;58263;48.146;11.440;2022-08-07T03:14:40;96184.88;;;17.45;71.59
70684;BME280;58263;48.146;11.440;2022-08-07T03:17:06;96193.00;;;17.39;71.49
70684;BME280;58263;48.146;11.440;2022-08-07T03:19:33;96185.69;;;17.40;71.50
70684;BME280;58263;48.146;11.440;2022-08-07T03:21:59;96188.41;;;17.40;71.87
70684;BME280;58263;48.146;11.440;2022-08-07T03:24:26;96195.97;;;17.38;71.71
70684;BME280;58263;48.146;11.440;2022-08-07T03:26:51;96192.72;;;17.36;71.64
70684;BME280;58263;48.146;11.440;2022-08-07T03:29:18;96192.69;;;17.31;72.11
70684;BME280;58263;48.146;11.440;2022-08-07T03:31:46;96191.56;;;17.27;72.10
70684;BME280;58263;48.146;11.440;2022-08-07T03:34:14;96192.91;;;17.24;72.20
70684;BME280;58263;48.146;11.440;2022-08-07T03:36:41;96191.00;;;17.24;72.22
70684;BME280;58263;48.146;11.440;2022-08-07T03:39:09;96195.06;;;17.22;72.31
70684;BME280;58263;48.146;11.440;2022-08-07T03:41:36;96199.13;;;17.24;72.45
70684;BME280;58263;48.146;11.440;2022-08-07T03:44:02;96193.16;;;17.22;72.56
70684;BME280;58263;48.146;11.440;2022-08-07T03:46:28;96196.94;;;17.21;72.11
70684;BME280;58263;48.146;11.440;2022-08-07T03:48:54;96191.53;;;17.21;72.27
70684;BME280;58263;48.146;11.440;2022-08-07T03:51:21;96188.28;;;17.19;72.31
70684;BME280;58263;48.146;11.440;2022-08-07T03:53:47;96187.75;;;17.22;72.54
70684;BME280;58263;48.146;11.440;2022-08-07T03:56:17;96186.63;;;17.18;72.06
70684;BME280;58263;48.146;11.440;2022-08-07T03:58:43;96180.94;;;17.20;71.84
70684;BME280;58263;48.146;11.440;2022-08-07T04:01:09;96187.97;;;17.16;72.24
70684;BME280;58263;48.146;11.440;2022-08-07T04:03:35;96183.34;;;17.16;72.33
70684;BME280;58263;48.146;11.440;2022-08-07T04:06:00;96180.09;;;17.14;72.20
70684;BME280;58263;48.146;11.440;2022-08-07T04:08:26;96169.81;;;17.11;72.37
70684;BME280;58263;48.146;11.440;2022-08-07T04:10:52;96179.00;;;17.10;72.14
70684;BME280;58263;48.146;11.440;2022-08-07T04:13:18;96184.66;;;17.03;72.70
70684;BME280;58263;48.146;11.440;2022-08-07T04:15:46;96180.59;;;17.06;72.44
70684;BME280;58263;48.146;11.440;2022-08-07T04:18:12;96181.41;;;17.06;72.28
70684;BME280;58263;48.146;11.440;2022-08-07T04:20:38;96181.13;;;17.08;72.17
70684;BME280;58263;48.146;11.440;2022-08-07T04:23:04;96177.88;;;17.06;72.03
70684;BME280;58263;48.146;11.440;2022-08-07T04:25:30;96181.72;;;17.10;71.99
70684;BME280;58263;48.146;11.440;2022-08-07T04:27:55;96182.78;;;17.09;72.42
70684;BME280;58263;48.146;11.440;2022-08-07T04:30:21;96182.78;;;17.09;71.76
70684;BME280;58263;48.146;11.440;2022-08-07T04:32:46;96179.00;;;17.10;71.49
70684;BME280;58263;48.146;11.440;2022-08-07T04:35:12;96176.25;;;17.05;71.64
70684;BME280;58263;48.146;11.440;2022-08-07T04:37:37;96177.88;;;17.06;71.43
70684;BME280;58263;48.146;11.440;2022-08-07T04:40:04;96186.03;;;17.06;71.36
70684;BME280;58263;48.146;11.440;2022-08-07T04:42:29;96179.53;;;17.07;71.64
70684;BME280;58263;48.146;11.440;2022-08-07T04:45:00;96173.81;;;17.03;71.53
70684;BME280;58263;48.146;11.440;2022-08-07T04:50:36;96181.72;;;17.10;71.60
70684;BME280;58263;48.146;11.440;2022-08-07T04:53:11;96176.31;;;17.15;71.74
70684;BME280;58263;48.146;11.440;2022-08-07T04:55:55;96177.44;;;17.19;71.09
70684;BME280;58263;48.146;11.440;2022-08-07T04:58:36;96179.34;;;17.24;71.12
70684;BME280;58263;48.146;11.440;2022-08-07T05:01:15;96184.53;;;17.31;71.31
70684;BME280;58263;48.146;11.440;2022-08-07T05:03:46;96177.81;;;17.38;70.71
70684;BME280;58263;48.146;11.440;2022-08-07T05:06:31;96175.91;;;17.39;70.45
70684;BME280;58263;48.146;11.440;2022-08-07T05:09:08;96180.28;;;17.45;70.33
70684;BME280;58263;48.146;11.440;2022-08-07T05:11:39;96181.91;;;17.46;70.22
70684;BME280;58263;48.146;11.440;2022-08-07T05:14:09;96187.38;;;17.51;70.05
70684;BME280;58263;48.146;11.440;2022-08-07T05:16:36;96186.81;;;17.54;69.82
70684;BME280;58263;48.146;11.440;2022-08-07T05:19:09;96186.84;;;17.60;69.96
70684;BME280;58263;48.146;11.440;2022-08-07T05:21:36;96172.78;;;17.68;68.83
70684;BME280;58263;48.146;11.440;2022-08-07T05:24:07;96185.03;;;17.76;69.00
70684;BME280;58263;48.146;11.440;2022-08-07T05:26:34;96179.31;;;17.72;68.42
70684;BME280;58263;48.146;11.440;2022-08-07T05:29:03;96180.91;;;17.68;68.06
70684;BME280;58263;48.146;11.440;2022-08-07T05:31:33;96185.28;;;17.69;67.71
70684;BME280;58263;48.146;11.440;2022-08-07T05:34:03;96185.56;;;17.72;67.43
70684;BME280;58263;48.146;11.440;2022-08-07T05:36:30;96183.16;;;17.81;67.97
70684;BME280;58263;48.146;11.440;2022-08-07T05:38:58;96180.72;;;17.90;67.31
70684;BME280;58263;48.146;11.440;2022-08-07T05:41:24;96184.84;;;17.93;67.43
70684;BME280;58263;48.146;11.440;2022-08-07T05:43:53;96183.50;;;17.95;66.42
70684;BME280;58263;48.146;11.440;2022-08-07T05:46:18;96190.59;;;18.06;65.24
70684;BME280;58263;48.146;11.440;2022-08-07T05:48:44;96189.00;;;18.11;65.68
70684;BME280;58263;48.146;11.440;2022-08-07T05:51:10;96193.06;;;18.18;64.55
70684;BME280;58263;48.146;11.440;2022-08-07T05:53:38;96184.94;;;18.23;64.07
70684;BME280;58263;48.146;11.440;2022-08-07T05:56:04;96184.69;;;18.35;63.87
70684;BME280;58263;48.146;11.440;2022-08-07T05:58:31;96191.47;;;18.48;63.46
70684;BME280;58263;48.146;11.440;2022-08-07T06:00:58;96184.97;;;18.70;62.73
70684;BME280;58263;48.146;11.440;2022-08-07T06:03:24;96188.25;;;18.72;60.82
70684;BME280;58263;48.146;11.440;2022-08-07T06:05:51;96193.41;;;18.73;60.78
70684;BME280;58263;48.146;11.440;2022-08-07T06:08:17;96198.59;;;18.90;60.93
70684;BME280;58263;48.146;11.440;2022-08-07T06:10:43;96202.41;;;18.89;61.21
70684;BME280;58263;48.146;11.440;2022-08-07T06:13:10;96195.03;;;18.85;60.21
70684;BME280;58263;48.146;11.440;2022-08-07T06:15:36;96189.09;;;18.88;60.19
70684;BME280;58263;48.146;11.440;2022-08-07T06:18:03;96198.88;;;18.89;59.74
70684;BME280;58263;48.146;11.440;2022-08-07T06:20:30;96202.13;;;18.86;59.60
70684;BME280;58263;48.146;11.440;2022-08-07T06:22:56;96189.91;;;18.99;59.56
70684;BME280;58263;48.146;11.440;2022-08-07T06:25:21;96196.94;;;19.10;59.31
70684;BME280;58263;48.146;11.440;2022-08-07T06:27:47;96188.25;;;19.08;58.53
70684;BME280;58263;48.146;11.440;2022-08-07T06:30:12;96189.91;;;19.14;59.31
70684;BME280;58263;48.146;11.440;2022-08-07T06:32:38;96195.03;;;19.21;58.76
70684;BME280;58263;48.146;11.440;2022-08-07T06:35:04;96192.03;;;19.28;58.98
70684;BME280;58263;48.146;11.440;2022-08-07T06:37:29;96191.75;;;19.34;57.83
70684;BME280;58263;48.146;11.440;2022-08-07T06:39:54;96192.81;;;19.33;58.09
70684;BME280;58263;48.146;11.440;2022-08-07T06:42:23;96198.56;;;19.27;57.65
70684;BME280;58263;48.146;11.440;2022-08-07T06:44:50;96200.75;;;19.19;57.97
70684;BME280;58263;48.146;11.440;2022-08-07T06:47:17;96199.09;;;19.29;58.57
70684;BME280;58263;48.146;11.440;2022-08-07T06:49:43;96199.09;;;19.34;58.44
70684;BME280;58263;48.146;11.440;2022-08-07T06:52:10;96204.56;;;19.13;58.09
70684;BME280;58263;48.146;11.440;2022-08-07T06:54:37;96194.78;;;19.22;57.82
70684;BME280;58263;48.146;11.440;2022-08-07T06:57:07;96192.31;;;19.31;58.09
70684;BME280;58263;48.146;11.440;2022-08-07T06:59:35;96196.09;;;19.40;58.30
70684;BME280;58263;48.146;11.440;2022-08-07T07:02:03;96187.06;;;19.55;57.77
70684;BME280;58263;48.146;11.440;2022-08-07T07:04:30;96192.00;;;19.38;57.33
70684;BME280;58263;48.146;11.440;2022-08-07T07:06:56;96193.09;;;19.42;56.98
70684;BME280;58263;48.146;11.440;2022-08-07T07:17:07;96196.31;;;19.65;56.29
70684;BME280;58263;48.146;11.440;2022-08-07T07:19:38;96202.00;;;19.68;55.84
70684;BME280;58263;48.146;11.440;2022-08-07T07:22:06;96205.13;;;20.06;55.44
70684;BME280;58263;48.146;11.440;2022-08-07T07:24:32;96188.75;;;20.17;54.10
70684;BME280;58263;48.146;11.440;2022-08-07T07:27:00;96190.03;;;20.24;55.31
70684;BME280;58263;48.146;11.440;2022-08-07T07:29:29;96191.91;;;20.34;54.94
70684;BME280;58263;48.146;11.440;2022-08-07T07:32:00;96182.94;;;20.29;54.09
70684;BME280;58263;48.146;11.440;2022-08-07T07:34:28;96191.66;;;20.31;55.09
70684;BME280;58263;48.146;11.440;2022-08-07T07:36:57;96186.09;;;20.46;53.46
70684;BME280;58263;48.146;11.440;2022-08-07T07:39:24;96180.28;;;20.63;52.97
70684;BME280;58263;48.146;11.440;2022-08-07T07:41:50;96176.69;;;20.68;53.51
70684;BME280;58263;48.146;11.440;2022-08-07T07:44:17;96174.75;;;20.73;53.39
70684;BME280;58263;48.146;11.440;2022-08-07T07:46:45;96170.13;;;20.74;52.07
70684;BME280;58263;48.146;11.440;2022-08-07T07:49:14;96165.00;;;20.97;51.62
70684;BME280;58263;48.146;11.440;2022-08-07T07:51:43;96162.00;;;20.98;51.29
70684;BME280;58263;48.146;11.440;2022-08-07T07:54:10;96163.22;;;21.16;51.75
70684;BME280;58263;48.146;11.440;2022-08-07T07:56:39;96157.84;;;21.35;51.64
70684;BME280;58263;48.146;11.440;2022-08-07T07:59:06;96163.66;;;21.53;51.02
70684;BME280;58263;48.146;11.440;2022-08-07T08:01:33;96167.66;;;21.60;50.24
70684;BME280;58263;48.146;11.440;2022-08-07T08:04:02;96166.84;;;21.84;49.83
70684;BME280;58263;48.146;11.440;2022-08-07T08:06:30;96162.50;;;21.83;48.96
70684;BME280;58263;48.146;11.440;2022-08-07T08:08:59;96156.63;;;21.71;48.55
70684;BME280;58263;48.146;11.440;2022-08-07T08:11:26;96159.78;;;21.59;48.34
70684;BME280;58263;48.146;11.440;2022-08-07T08:13:52;96163.94;;;21.75;48.92
70684;BME280;58263;48.146;11.440;2022-08-07T08:16:19;96160.97;;;21.72;48.21
70684;BME280;58263;48.146;11.440;2022-08-07T08:18:47;96159.88;;;21.73;48.59
70684;BME280;58263;48.146;11.440;2022-08-07T08:21:14;96157.53;;;21.85;48.26
70684;BME280;58263;48.146;11.440;2022-08-07T08:24:03;96160.16;;;21.95;47.42
70684;BME280;58263;48.146;11.440;2022-08-07T08:26:50;96159.94;;;22.11;46.83
70684;BME280;58263;48.146;11.440;2022-08-07T08:29:41;96162.19;;;22.47;46.25
70684;BME280;58263;48.146;11.440;2022-08-07T08:32:09;96162.84;;;22.58;45.91
70684;BME280;58263;48.146;11.440;2022-08-07T08:34:37;96168.59;;;22.56;45.06
70684;BME280;58263;48.146;11.440;2022-08-07T08:37:03;96166.50;;;22.67;44.94
70684;BME280;58263;48.146;11.440;2022-08-07T08:39:30;96166.38;;;22.77;45.25
70684;BME280;58263;48.146;11.440;2022-08-07T08:42:03;96166.13;;;22.74;45.16
70684;BME280;58263;48.146;11.440;2022-08-07T08:44:42;96164.78;;;22.90;45.17
70684;BME280;58263;48.146;11.440;2022-08-07T08:50:30;96169.13;;;23.24;44.97
70684;BME280;58263;48.146;11.440;2022-08-07T08:53:14;96168.75;;;23.31;43.92
70684;BME280;58263;48.146;11.440;2022-08-07T08:55:49;96163.16;;;23.22;44.09
70684;BME280;58263;48.146;11.440;2022-08-07T08:58:28;96162.75;;;23.15;44.56
70684;BME280;58263;48.146;11.440;2022-08-07T09:01:04;96160.44;;;22.89;44.62
70684;BME280;58263;48.146;11.440;2022-08-07T09:03:51;96161.47;;;22.93;44.97
70684;BME280;58263;48.146;11.440;2022-08-07T09:09:23;96162.47;;;23.31;43.44
70684;BME280;58263;48.146;11.440;2022-08-07T09:12:12;96157.50;;;23.33;43.07
70684;BME280;58263;48.146;11.440;2022-08-07T09:15:00;96162.69;;;23.62;43.73
70684;BME280;58263;48.146;11.440;2022-08-07T09:17:47;96159.03;;;23.80;43.62
70684;BME280;58263;48.146;11.440;2022-08-07T09:20:30;96158.44;;;23.98;42.90
70684;BME280;58263;48.146;11.440;2022-08-07T09:23:41;96159.81;;;24.23;42.11
70684;BME280;58263;48.146;11.440;2022-08-07T09:28:52;96151.94;;;25.12;41.39
70684;BME280;58263;48.146;11.440;2022-08-07T09:31:51;96147.69;;;25.28;40.26
70684;BME280;58263;48.146;11.440;2022-08-07T09:37:42;96153.03;;;25.65;39.07
70684;BME280;58263;48.146;11.440;2022-08-07T09:40:31;96145.00;;;25.77;38.94
70684;BME280;58263;48.146;11.440;2022-08-07T09:45:41;96147.13;;;25.98;37.71
70684;BME280;58263;48.146;11.440;2022-08-07T09:48:15;96137.16;;;26.11;38.65
70684;BME280;58263;48.146;11.440;2022-08-07T09:53:51;96138.16;;;26.50;36.85
70684;BME280;58263;48.146;11.440;2022-08-07T10:07:17;96128.44;;;27.53;35.09
70684;BME280;58263;48.146;11.440;2022-08-07T10:09:56;96138.66;;;27.52;34.88
70684;BME280;58263;48.146;11.440;2022-08-07T10:13:04;96126.59;;;27.65;34.56
70684;BME280;58263;48.146;11.440;2022-08-07T10:15:35;96127.47;;;27.87;35.24
70684;BME280;58263;48.146;11.440;2022-08-07T10:24:15;96127.91;;;27.59;35.04
70684;BME280;58263;48.146;11.440;2022-08-07T10:26:59;96122.81;;;27.31;35.07
70684;BME280;58263;48.146;11.440;2022-08-07T10:38:20;96112.72;;;26.97;36.18
70684;BME280;58263;48.146;11.440;2022-08-07T10:40:55;96111.19;;;27.17;35.30
70684;BME280;58263;48.146;11.440;2022-08-07T10:43:33;96103.50;;;27.79;34.24
70684;BME280;58263;48.146;11.440;2022-08-07T10:46:03;96102.56;;;27.36;34.15
70684;BME280;58263;48.146;11.440;2022-08-07T10:54:14;96108.19;;;26.57;35.31
70684;BME280;58263;48.146;11.440;2022-08-07T10:56:48;96109.50;;;26.86;36.63
70684;BME280;58263;48.146;11.440;2022-08-07T10:59:46;96107.56;;;26.87;35.41
70684;BME280;58263;48.146;11.440;2022-08-07T11:02:33;96110.25;;;27.13;35.21
70684;BME280;58263;48.146;11.440;2022-08-07T11:08:01;96095.97;;;27.88;34.96
70684;BME280;58263;48.146;11.440;2022-08-07T11:10:53;96097.50;;;28.07;34.30
70684;BME280;58263;48.146;11.440;2022-08-07T11:13:23;96095.63;;;28.41;33.94
70684;BME280;58263;48.146;11.440;2022-08-07T11:15:51;96093.00;;;28.65;33.70
70684;BME280;58263;48.146;11.440;2022-08-07T11:18:24;96093.56;;;28.92;33.00
70684;BME280;58263;48.146;11.440;2022-08-07T11:21:10;96090.44;;;29.27;32.73
70684;BME280;58263;48.146;11.440;2022-08-07T11:26:35;96084.75;;;30.63;29.42
70684;BME280;58263;48.146;11.440;2022-08-07T11:29:07;96082.78;;;30.23;30.58
70684;BME280;58263;48.146;11.440;2022-08-07T12:08:06;96068.78;;;29.79;30.30
70684;BME280;58263;48.146;11.440;2022-08-07T12:10:39;96069.47;;;30.00;30.48
70684;BME280;58263;48.146;11.440;2022-08-07T12:13:15;96054.22;;;30.19;30.53
70684;BME280;58263;48.146;11.440;2022-08-07T12:15:50;96059.94;;;30.26;30.13
70684;BME280;58263;48.146;11.440;2022-08-07T12:18:27;96057.06;;;30.35;30.29
70684;BME280;58263;48.146;11.440;2022-08-07T12:21:10;96062.31;;;30.40;29.32
70684;BME280;58263;48.146;11.440;2022-08-07T12:26:18;96045.56;;;30.21;30.39
70684;BME280;58263;48.146;11.440;2022-08-07T12:31:38;96051.22;;;30.12;30.00
70684;BME280;58263;48.146;11.440;2022-08-07T12:34:05;96050.50;;;30.27;29.64
70684;BME280;58263;48.146;11.440;2022-08-07T12:36:32;96048.38;;;30.49;30.05
70684;BME280;58263;48.146;11.440;2022-08-07T12:39:00;96045.66;;;30.24;30.47
70684;BME280;58263;48.146;11.440;2022-08-07T12:41:27;96048.22;;;30.17;30.08
70684;BME280;58263;48.146;11.440;2022-08-07T12:43:55;96038.72;;;30.30;29.54
70684;BME280;58263;48.146;11.440;2022-08-07T12:52:00;96037.00;;;30.26;29.33
70684;BME280;58263;48.146;11.440;2022-08-07T12:54:33;96042.84;;;30.49;29.34
70684;BME280;58263;48.146;11.440;2022-08-07T12:57:01;96031.97;;;30.44;28.85
70684;BME280;58263;48.146;11.440;2022-08-07T12:59:30;96043.75;;;30.53;28.86
70684;BME280;58263;48.146;11.440;2022-08-07T13:02:14;96029.06;;;30.52;28.40
70684;BME280;58263;48.146;11.440;2022-08-07T13:05:16;96029.44;;;30.39;29.48
70684;BME280;58263;48.146;11.440;2022-08-07T13:10:31;96031.66;;;30.05;28.98
70684;BME280;58263;48.146;11.440;2022-08-07T13:15:42;96025.69;;;29.65;30.41
70684;BME280;58263;48.146;11.440;2022-08-07T13:18:44;96020.88;;;29.62;29.46
70684;BME280;58263;48.146;11.440;2022-08-07T13:21:29;96024.09;;;29.64;30.09
70684;BME280;58263;48.146;11.440;2022-08-07T13:27:48;96009.31;;;29.11;30.21
70684;BME280;58263;48.146;11.440;2022-08-07T13:32:49;96005.78;;;29.23;30.11
70684;BME280;58263;48.146;11.440;2022-08-07T13:35:36;96009.50;;;29.27;30.14
70684;BME280;58263;48.146;11.440;2022-08-07T13:38:15;96011.09;;;29.28;30.20
70684;BME280;58263;48.146;11.440;2022-08-07T13:41:04;96011.56;;;29.30;30.87
70684;BME280;58263;48.146;11.440;2022-08-07T13:43:31;95999.25;;;29.27;31.05
70684;BME280;58263;48.146;11.440;2022-08-07T13:46:00;96005.06;;;29.13;30.44
70684;BME280;58263;48.146;11.440;2022-08-07T13:48:28;96004.25;;;28.88;31.01
70684;BME280;58263;48.146;11.440;2022-08-07T13:50:57;95996.38;;;28.65;31.35
70684;BME280;58263;48.146;11.440;2022-08-07T13:53:32;95998.88;;;28.58;31.43
70684;BME280;58263;48.146;11.440;2022-08-07T13:56:01;95999.97;;;28.45;31.18
70684;BME280;58263;48.146;11.440;2022-08-07T13:58:33;95993.75;;;28.36;31.78
70684;BME280;58263;48.146;11.440;2022-08-07T14:01:20;95999.94;;;28.32;31.20
70684;BME280;58263;48.146;11.440;2022-08-07T14:03:47;95984.47;;;28.40;31.19
70684;BME280;58263;48.146;11.440;2022-08-07T14:06:13;95986.19;;;28.45;31.40
70684;BME280;58263;48.146;11.440;2022-08-07T14:08:45;95990.00;;;28.19;31.31
70684;BME280;58263;48.146;11.440;2022-08-07T14:11:16;95984.97;;;28.00;31.45
70684;BME280;58263;48.146;11.440;2022-08-07T14:13:48;95999.16;;;28.11;31.44
70684;BME280;58263;48.146;11.440;2022-08-07T14:16:23;95992.16;;;27.92;31.95
70684;BME280;58263;48.146;11.440;2022-08-07T14:18:51;95996.44;;;27.81;31.20
70684;BME280;58263;48.146;11.440;2022-08-07T14:21:28;95987.44;;;27.72;31.64
70684;BME280;58263;48.146;11.440;2022-08-07T14:24:07;95993.00;;;27.84;31.49
70684;BME280;58263;48.146;11.440;2022-08-07T14:26:48;95980.78;;;27.73;30.68
70684;BME280;58263;48.146;11.440;2022-08-07T14:29:18;95975.69;;;27.62;31.24
70684;BME280;58263;48.146;11.440;2022-08-07T14:31:46;95981.25;;;27.54;32.14
70684;BME280;58263;48.146;11.440;2022-08-07T14:34:14;95986.16;;;27.48;31.61
70684;BME280;58263;48.146;11.440;2022-08-07T14:36:41;95979.16;;;27.51;31.99
70684;BME280;58263;48.146;11.440;2022-08-07T14:39:07;95988.38;;;27.55;32.78
70684;BME280;58263;48.146;11.440;2022-08-07T14:41:34;95984.53;;;27.47;32.23
70684;BME280;58263;48.146;11.440;2022-08-07T14:44:06;95984.06;;;27.45;32.14
70684;BME280;58263;48.146;11.440;2022-08-07T14:46:33;95983.88;;;27.50;31.89
70684;BME280;58263;48.146;11.440;2022-08-07T14:49:00;95982.28;;;27.40;31.98
70684;BME280;58263;48.146;11.440;2022-08-07T14:51:27;95979.44;;;27.28;31.86
70684;BME280;58263;48.146;11.440;2022-08-07T14:53:55;95976.06;;;27.22;31.76
70684;BME280;58263;48.146;11.440;2022-08-07T14:56:23;95976.22;;;27.26;31.32
70684;BME280;58263;48.146;11.440;2022-08-07T14:58:54;95980.91;;;27.25;32.31
70684;BME280;58263;48.146;11.440;2022-08-07T15:01:26;95980.34;;;27.11;31.80
70684;BME280;58263;48.146;11.440;2022-08-07T15:03:53;95975.88;;;26.97;31.95
70684;BME280;58263;48.146;11.440;2022-08-07T15:06:24;95976.72;;;26.89;31.57
70684;BME280;58263;48.146;11.440;2022-08-07T15:08:52;95980.00;;;26.74;32.32
70684;BME280;58263;48.146;11.440;2022-08-07T15:11:21;95973.34;;;26.75;32.76